createdAt,value
2022-12-14T00:00:37.139Z,72.4
2022-12-14T00:02:38.291Z,72.2
2022-12-14T00:05:00.635Z,82.8
2022-12-14T00:07:01.638Z,78.4
2022-12-14T00:09:02.759Z,73.8
2022-12-14T00:11:08.547Z,75.3
2022-12-14T00:13:09.510Z,67.3
2022-12-14T00:15:10.530Z,77.6
2022-12-14T00:17:11.590Z,66.7
2022-12-14T00:19:12.601Z,73.1
2022-12-14T00:21:13.610Z,71.2
2022-12-14T00:23:14.731Z,69.3
2022-12-14T00:25:18.973Z,70.9
2022-12-14T00:27:19.990Z,62.1
2022-12-14T00:29:20.976Z,60.5
2022-12-14T00:31:22.179Z,63.9
2022-12-14T00:33:23.097Z,68
2022-12-14T00:35:24.103Z,63.8
2022-12-14T00:37:25.124Z,63.3
2022-12-14T00:39:29.443Z,67.6
2022-12-14T00:41:30.459Z,62.7
2022-12-14T00:43:31.470Z,71.2
2022-12-14T00:45:32.447Z,63.6
2022-12-14T00:47:38.987Z,54.3
2022-12-14T00:49:34.575Z,59.2
2022-12-14T00:51:35.690Z,69.7
2022-12-14T00:53:40.143Z,63.5
2022-12-14T00:55:41.265Z,63.1
2022-12-14T00:57:42.355Z,61.9
2022-12-14T00:58:44.579Z,63.1
2022-12-14T01:00:45.683Z,59.3
2022-12-14T01:06:52.030Z,67.4
2022-12-14T01:08:53.048Z,54.2
2022-12-14T01:10:54.155Z,58.3
2022-12-14T01:12:55.145Z,57.5
2022-12-14T01:14:56.254Z,55.9
2022-12-14T01:16:57.370Z,51.6
2022-12-14T01:18:58.465Z,57.9
2022-12-14T01:23:04.007Z,61.7
2022-12-14T01:25:05.106Z,60.7
2022-12-14T01:27:06.198Z,49.8
2022-12-14T01:29:07.333Z,65.7
2022-12-14T01:31:08.393Z,51.2
2022-12-14T01:33:09.410Z,68.2
2022-12-14T01:35:13.877Z,54.1
2022-12-14T01:37:14.951Z,62.8
2022-12-14T01:39:16.050Z,62.5
2022-12-14T01:41:17.159Z,50.7
2022-12-14T01:45:19.323Z,71.8
2022-12-14T01:49:24.857Z,120
2022-12-14T01:54:29.221Z,68.1
2022-12-14T01:56:30.321Z,54
2022-12-14T01:58:31.459Z,64.3
2022-12-14T02:00:32.534Z,70.7
2022-12-14T02:02:37.065Z,65.7
2022-12-14T02:04:38.053Z,59
2022-12-14T02:06:39.110Z,62.4
2022-12-14T02:08:40.201Z,58.2
2022-12-14T02:10:41.275Z,73.3
2022-12-14T02:12:42.370Z,66.2
2022-12-14T02:14:43.423Z,79.9
2022-12-14T02:16:47.828Z,70.3
2022-12-14T02:18:48.888Z,77.9
2022-12-14T02:20:49.987Z,73.7
2022-12-14T02:22:51.045Z,67.5
2022-12-14T02:24:52.114Z,63.9
2022-12-14T02:26:53.170Z,61.6
2022-12-14T02:28:54.269Z,68
2022-12-14T02:30:58.771Z,79.1
2022-12-14T02:32:59.758Z,70.2
2022-12-14T02:35:00.803Z,69.6
2022-12-14T02:37:01.887Z,65.8
2022-12-14T02:39:02.946Z,63.2
2022-12-14T02:41:04.000Z,78.4
2022-12-14T02:43:05.058Z,74.5
2022-12-14T02:45:09.461Z,70.5
2022-12-14T02:47:10.584Z,65
2022-12-14T02:49:11.609Z,72.4
2022-12-14T02:50:13.801Z,79.6
2022-12-14T02:58:21.409Z,80.6
2022-12-14T03:00:22.472Z,64.2
2022-12-14T03:02:23.611Z,64.9
2022-12-14T03:08:26.686Z,76.2
2022-12-14T03:10:27.710Z,79.5
2022-12-14T03:12:32.101Z,65.6
2022-12-14T03:14:33.164Z,79.4
2022-12-14T03:16:34.264Z,68
2022-12-14T03:18:35.270Z,68.9
2022-12-14T03:20:36.310Z,75.7
2022-12-14T03:22:37.340Z,64.6
2022-12-14T03:24:38.388Z,87.4
2022-12-14T03:26:47.160Z,70.5
2022-12-14T03:28:43.868Z,77.1
2022-12-14T03:31:00.011Z,75.4
2022-12-14T03:32:45.904Z,77.6
2022-12-14T03:34:46.962Z,77.1
2022-12-14T03:36:48.004Z,75.1
2022-12-14T03:38:49.036Z,81.2
2022-12-14T03:40:53.447Z,90.6
2022-12-14T03:42:54.463Z,88.2
2022-12-14T03:44:55.504Z,83.6
2022-12-14T03:47:18.138Z,86.9
2022-12-14T03:49:19.179Z,80.6
2022-12-14T03:51:20.193Z,76.6
2022-12-14T03:53:24.822Z,84.8
2022-12-14T03:55:25.623Z,91.1
2022-12-14T03:57:26.667Z,77.1
2022-12-14T03:59:27.702Z,84.6
2022-12-14T04:01:28.818Z,81.3
2022-12-14T04:03:29.928Z,78.1
2022-12-14T04:05:30.769Z,77.7
2022-12-14T04:09:36.207Z,80.2
2022-12-14T04:11:37.227Z,92.1
2022-12-14T04:13:38.250Z,80.6
2022-12-14T04:15:39.277Z,82.1
2022-12-14T04:25:47.759Z,90.3
2022-12-14T04:27:48.775Z,74.4
2022-12-14T04:37:57.235Z,86.6
2022-12-14T04:39:58.250Z,92
2022-12-14T04:41:00.434Z,87.1
2022-12-14T04:43:01.449Z,70.9
2022-12-14T04:45:02.517Z,79.6
2022-12-14T04:47:03.489Z,75.5
2022-12-14T04:49:07.869Z,78.7
2022-12-14T04:51:08.875Z,80.6
2022-12-14T04:53:09.907Z,78.8
2022-12-14T04:57:17.368Z,80
2022-12-14T04:59:12.923Z,83.3
2022-12-14T05:01:14.061Z,81.1
2022-12-14T05:03:18.340Z,87.2
2022-12-14T05:05:19.328Z,72.5
2022-12-14T05:07:20.345Z,92.7
2022-12-14T05:09:21.338Z,83.4
2022-12-14T05:11:52.092Z,85.4
2022-12-14T05:13:23.359Z,79.4
2022-12-14T05:15:24.348Z,83.3
2022-12-14T05:17:28.727Z,86.8
2022-12-14T05:19:29.719Z,90.1
2022-12-14T05:21:30.711Z,80.8
2022-12-14T05:23:31.736Z,74.2
2022-12-14T05:25:32.728Z,86.8
2022-12-14T05:27:33.710Z,100.5
2022-12-14T05:29:34.706Z,79.8
2022-12-14T05:31:39.112Z,82.5
2022-12-14T05:33:40.132Z,98.5
2022-12-14T05:35:41.110Z,74.4
2022-12-14T05:36:43.290Z,73.8
2022-12-14T05:38:44.254Z,76.6
2022-12-14T05:40:45.252Z,77
2022-12-14T05:42:49.855Z,91.9
2022-12-14T05:44:50.650Z,75.3
2022-12-14T05:46:51.641Z,77.9
2022-12-14T05:48:52.685Z,78.1
2022-12-14T05:50:53.604Z,67.2
2022-12-14T05:52:54.666Z,82.8
2022-12-14T05:54:59.452Z,93.8
2022-12-14T05:56:56.658Z,87.1
2022-12-14T05:59:01.035Z,89
2022-12-14T06:01:03.596Z,87.3
2022-12-14T06:03:04.580Z,86.2
2022-12-14T06:05:05.527Z,82.6
2022-12-14T06:07:06.528Z,84.2
2022-12-14T06:09:07.500Z,80.5
2022-12-14T06:11:08.482Z,71.5
2022-12-14T06:13:12.865Z,83
2022-12-14T06:15:13.844Z,81
2022-12-14T06:17:14.832Z,65.4
2022-12-14T06:19:15.813Z,102.9
2022-12-14T06:21:16.827Z,75.9
2022-12-14T06:23:17.838Z,94.8
2022-12-14T06:25:18.785Z,86.1
2022-12-14T06:27:23.139Z,75.2
2022-12-14T06:29:24.102Z,91.8
2022-12-14T06:31:25.175Z,94.5
2022-12-14T06:32:27.263Z,76.8
2022-12-14T06:34:28.776Z,83.5
2022-12-14T06:36:29.243Z,82.4
2022-12-14T06:38:30.202Z,65
2022-12-14T06:40:34.568Z,86
2022-12-14T06:46:37.501Z,80
2022-12-14T06:50:39.413Z,86.1
2022-12-14T06:52:40.396Z,73.5
2022-12-14T07:02:48.841Z,88.2
2022-12-14T07:06:50.564Z,92.5
2022-12-14T07:08:54.909Z,107.3
2022-12-14T07:11:01.970Z,84.5
2022-12-14T07:12:56.840Z,94.5
2022-12-14T07:14:57.834Z,95.5
2022-12-14T07:16:58.791Z,101
2022-12-14T07:18:59.774Z,85.3
2022-12-14T07:21:00.752Z,95.5
2022-12-14T07:23:05.084Z,102.8
2022-12-14T07:25:06.051Z,74.3
2022-12-14T07:27:07.021Z,87.5
2022-12-14T07:29:35.732Z,95.4
2022-12-14T07:31:36.753Z,82.7
2022-12-14T07:33:37.647Z,104.7
2022-12-14T07:35:41.996Z,77.9
2022-12-14T07:37:42.960Z,87.4
2022-12-14T07:39:43.923Z,80.6
2022-12-14T07:41:44.871Z,73.2
2022-12-14T07:43:45.869Z,79.3
2022-12-14T07:45:46.842Z,81.9
2022-12-14T07:47:47.819Z,78.5
2022-12-14T07:49:52.178Z,71.3
2022-12-14T07:51:53.174Z,91.8
2022-12-14T07:53:54.115Z,87.2
2022-12-14T07:55:55.102Z,92.5
2022-12-14T07:57:56.076Z,94.7
2022-12-14T07:59:57.720Z,81.9
2022-12-14T08:01:58.135Z,72.5
2022-12-14T08:04:02.361Z,85.8
2022-12-14T08:06:03.449Z,78.5
2022-12-14T08:08:04.290Z,75
2022-12-14T08:10:05.286Z,67.6
2022-12-14T08:12:06.230Z,81
2022-12-14T08:14:07.218Z,75.1
2022-12-14T08:16:08.365Z,66.8
2022-12-14T08:18:12.545Z,75
2022-12-14T08:20:13.514Z,70.7
2022-12-14T08:22:14.477Z,69
2022-12-14T08:25:17.667Z,75.9
2022-12-14T08:29:19.609Z,68
2022-12-14T08:31:24.034Z,87.1
2022-12-14T08:33:24.917Z,78.8
2022-12-14T08:35:25.881Z,67.6
2022-12-14T08:41:28.791Z,72.4
2022-12-14T08:43:30.269Z,71.7
2022-12-14T08:45:34.115Z,61.7
2022-12-14T08:47:35.063Z,82.8
2022-12-14T08:49:36.027Z,91.6
2022-12-14T08:51:37.011Z,80.2
2022-12-14T08:53:38.018Z,68.9
2022-12-14T08:55:39.094Z,74.6
2022-12-14T08:57:39.994Z,62.9
2022-12-14T09:00:01.748Z,85.8
2022-12-14T09:01:45.612Z,81.3
2022-12-14T09:03:46.364Z,68.6
2022-12-14T09:05:47.372Z,75.6
2022-12-14T09:07:48.357Z,71.8
2022-12-14T09:09:49.389Z,65.2
2022-12-14T09:11:50.400Z,61.8
2022-12-14T09:13:54.793Z,72.8
2022-12-14T09:17:56.810Z,64.6
2022-12-14T09:18:58.996Z,56.8
2022-12-14T09:21:00.045Z,61.3
2022-12-14T09:23:01.081Z,65.7
2022-12-14T09:25:02.114Z,52.7
2022-12-14T09:27:06.483Z,68.5
2022-12-14T09:29:07.530Z,62.2
2022-12-14T09:31:08.621Z,64.8
2022-12-14T09:33:09.811Z,55.2
2022-12-14T09:35:10.644Z,65.3
2022-12-14T09:37:11.705Z,56.8
2022-12-14T09:39:12.790Z,49
2022-12-14T09:41:17.225Z,54.6
2022-12-14T09:43:18.223Z,52.2
2022-12-14T09:45:19.178Z,57
2022-12-14T09:47:20.223Z,46.1
2022-12-14T09:49:21.227Z,56.6
2022-12-14T09:51:22.342Z,55.7
2022-12-14T09:53:23.280Z,42.9
2022-12-14T09:55:27.580Z,48.3
2022-12-14T09:57:28.652Z,63
2022-12-14T09:59:29.687Z,50.1
2022-12-14T10:01:30.884Z,44.4
2022-12-14T10:03:32.376Z,40.3
2022-12-14T10:05:32.865Z,50.4
2022-12-14T10:07:34.516Z,39.1
2022-12-14T10:09:38.314Z,34.9
2022-12-14T10:11:39.369Z,45.8
2022-12-14T10:13:40.662Z,47.7
2022-12-14T10:14:44.436Z,48.5
2022-12-14T10:16:48.427Z,30.9
2022-12-14T10:18:59.551Z,43.2
2022-12-14T10:22:50.397Z,31.9
2022-12-14T10:24:51.496Z,40.4
2022-12-14T10:26:52.634Z,36.8
2022-12-14T10:29:00.747Z,43.7
2022-12-14T10:30:54.876Z,48.2
2022-12-14T10:32:55.984Z,46.3
2022-12-14T10:34:57.138Z,34.7
2022-12-14T10:37:01.507Z,42.5
2022-12-14T10:39:02.639Z,36.6
2022-12-14T10:41:03.753Z,39
2022-12-14T10:43:04.824Z,37
2022-12-14T10:47:07.124Z,38.5
2022-12-14T10:49:08.180Z,42.3
2022-12-14T10:51:12.546Z,45.5
2022-12-14T10:53:13.643Z,46.9
2022-12-14T10:55:14.757Z,42.6
2022-12-14T10:57:15.853Z,40
2022-12-14T10:59:16.939Z,51.2
2022-12-14T11:03:19.258Z,37.1
2022-12-14T11:05:23.527Z,47.9
2022-12-14T11:07:24.594Z,39.9
2022-12-14T11:11:54.252Z,44.7
2022-12-14T11:15:56.349Z,41
2022-12-14T11:18:00.862Z,43.7
2022-12-14T11:20:01.767Z,44.6
2022-12-14T11:22:02.821Z,40.7
2022-12-14T11:24:03.897Z,34.6
2022-12-14T11:26:04.955Z,35.2
2022-12-14T11:28:05.994Z,44.4
2022-12-14T11:32:11.413Z,44.1
2022-12-14T11:36:13.549Z,42.4
2022-12-14T11:40:15.720Z,35.8
2022-12-14T11:42:16.718Z,39.2
2022-12-14T11:48:23.186Z,36.3
2022-12-14T11:50:25.804Z,32
2022-12-14T11:56:28.965Z,37.9
2022-12-14T11:58:30.459Z,42.4
2022-12-14T12:00:34.384Z,45.2
2022-12-14T12:07:39.797Z,35
2022-12-14T12:09:40.895Z,35.7
2022-12-14T12:11:41.980Z,42.5
2022-12-14T12:15:49.972Z,34.5
2022-12-14T12:17:48.482Z,33.2
2022-12-14T12:19:49.570Z,39.2
2022-12-14T12:21:50.662Z,33.6
2022-12-14T12:23:51.716Z,47.5
2022-12-14T12:25:52.790Z,32.5
2022-12-14T12:27:57.166Z,48.9
2022-12-14T12:31:59.329Z,34.8
2022-12-14T12:34:00.400Z,33.8
2022-12-14T12:36:01.482Z,35.1
2022-12-14T12:38:02.580Z,40.2
2022-12-14T12:40:03.628Z,38.8
2022-12-14T12:42:07.968Z,35.4
2022-12-14T12:46:10.212Z,37
2022-12-14T12:54:14.472Z,40.5
2022-12-14T12:56:18.807Z,36.2
2022-12-14T12:58:19.911Z,35.6
2022-12-14T13:00:20.996Z,43.3
2022-12-14T13:01:23.307Z,41.3
2022-12-14T13:03:24.308Z,42.7
2022-12-14T13:07:26.412Z,36.3
2022-12-14T13:09:30.738Z,41.6
2022-12-14T13:11:31.827Z,37.4
2022-12-14T13:13:32.933Z,36.7
2022-12-14T13:15:34.076Z,37.4
2022-12-14T13:17:35.099Z,44
2022-12-14T13:19:50.709Z,33
2022-12-14T13:21:37.237Z,37.9
2022-12-14T13:23:45.503Z,32.6
2022-12-14T13:25:42.701Z,31.2
2022-12-14T13:27:43.801Z,41
2022-12-14T13:31:45.923Z,38
2022-12-14T13:33:46.992Z,32.9
2022-12-14T13:35:48.104Z,40.8
2022-12-14T13:37:52.437Z,47.1
2022-12-14T13:39:53.528Z,41.6
2022-12-14T13:41:54.605Z,41.8
2022-12-14T13:43:55.677Z,47.9
2022-12-14T13:45:56.785Z,39.6
2022-12-14T13:47:57.954Z,40.4
2022-12-14T13:50:34.381Z,38.8
2022-12-14T13:52:03.271Z,54.2
2022-12-14T13:54:04.361Z,48.6
2022-12-14T13:56:05.474Z,54.3
2022-12-14T14:01:09.901Z,38.8
2022-12-14T14:03:10.979Z,36.9
2022-12-14T14:05:15.194Z,37.5
2022-12-14T14:07:16.280Z,37.8
2022-12-14T14:13:19.527Z,45.1
2022-12-14T14:15:25.887Z,42.3
2022-12-14T14:17:21.712Z,34.1
2022-12-14T14:19:26.016Z,38
2022-12-14T14:25:29.388Z,40.4
2022-12-14T14:27:30.352Z,44.7
2022-12-14T14:29:31.432Z,39.5
2022-12-14T14:37:38.997Z,36.6
2022-12-14T14:43:42.229Z,26.7
2022-12-14T14:45:43.280Z,27.3
2022-12-14T14:47:47.604Z,20.1
2022-12-14T14:49:48.673Z,25.8
2022-12-14T14:51:49.751Z,22.1
2022-12-14T14:56:19.338Z,25.1
2022-12-14T14:58:22.343Z,19.6
2022-12-14T15:08:29.575Z,31.9
2022-12-14T15:10:30.094Z,19.3
2022-12-14T15:12:31.174Z,28.4
2022-12-14T15:14:35.561Z,20.7
2022-12-14T15:16:36.617Z,22.2
2022-12-14T15:18:37.654Z,23.1
2022-12-14T15:20:38.712Z,29.3
2022-12-14T15:22:39.787Z,16.5
2022-12-14T15:24:40.864Z,15.9
2022-12-14T15:26:41.900Z,15.6
2022-12-14T15:28:46.253Z,20.2
2022-12-14T15:32:48.365Z,26.4
2022-12-14T15:34:49.411Z,22.8
2022-12-14T15:38:51.539Z,18.8
2022-12-14T15:40:52.590Z,21.1
2022-12-14T15:48:01.168Z,32.5
2022-12-14T15:50:06.978Z,26.1
2022-12-14T15:52:03.278Z,34.9
2022-12-14T15:54:04.318Z,31.2
2022-12-14T15:56:11.900Z,31.7
2022-12-14T15:58:09.712Z,41.9
2022-12-14T16:00:10.772Z,35.6
2022-12-14T16:02:11.967Z,46.1
2022-12-14T16:04:12.907Z,34.2
2022-12-14T16:06:13.870Z,32.3
2022-12-14T16:08:14.916Z,28
2022-12-14T16:10:19.235Z,35.7
2022-12-14T16:12:20.260Z,37.4
2022-12-14T16:14:21.282Z,43.3
2022-12-14T16:16:22.440Z,45.7
2022-12-14T16:18:23.378Z,38.1
2022-12-14T16:20:24.406Z,41.1
2022-12-14T16:22:25.441Z,59.6
2022-12-14T16:24:29.738Z,55.6
2022-12-14T16:28:31.799Z,69.9
2022-12-14T16:30:32.856Z,52.4
2022-12-14T16:32:33.885Z,74.9
2022-12-14T16:34:34.890Z,67.6
2022-12-14T16:36:35.930Z,68.2
2022-12-14T16:38:40.229Z,87.1
2022-12-14T16:40:41.256Z,89.1
2022-12-14T16:42:42.261Z,115.2
2022-12-14T16:43:44.392Z,331.5
2022-12-14T16:47:46.478Z,75.6
2022-12-14T16:49:47.613Z,66
2022-12-14T16:52:06.727Z,64.1
2022-12-14T16:53:53.193Z,55.7
2022-12-14T16:55:54.210Z,61.1
2022-12-14T16:57:55.218Z,65.1
2022-12-14T16:59:56.226Z,66
2022-12-14T17:06:02.567Z,62.4
2022-12-14T17:08:03.536Z,55
2022-12-14T17:10:04.515Z,56.6
2022-12-14T17:12:05.523Z,56
2022-12-14T17:14:06.520Z,51.1
2022-12-14T17:16:07.562Z,63.7
2022-12-14T17:18:08.550Z,58.3
2022-12-14T17:20:14.225Z,62.4
2022-12-14T17:22:13.902Z,65.3
2022-12-14T17:24:14.876Z,58.5
2022-12-14T17:26:15.885Z,47.2
2022-12-14T17:28:16.987Z,51.3
2022-12-14T17:30:17.944Z,46.2
2022-12-14T17:32:18.931Z,50.2
2022-12-14T17:36:24.186Z,59.4
2022-12-14T17:39:29.028Z,89.1
2022-12-14T17:41:29.982Z,42.6
2022-12-14T17:43:31.507Z,30
2022-12-14T17:45:32.023Z,45
2022-12-14T17:47:36.486Z,65.8
2022-12-14T17:49:37.451Z,45.2
2022-12-14T17:51:38.561Z,40.1
2022-12-14T17:53:39.614Z,57.1
2022-12-14T17:55:40.674Z,185
2022-12-14T17:57:41.765Z,210.8
2022-12-14T17:59:47.312Z,118.6
2022-12-14T18:01:47.187Z,64.4
2022-12-14T18:03:48.143Z,65.9
2022-12-14T18:05:49.222Z,77.8
2022-12-14T18:07:50.234Z,80.6
2022-12-14T18:09:51.053Z,87.1
2022-12-14T18:12:21.398Z,90
2022-12-14T18:13:53.542Z,75.6
2022-12-14T18:15:58.065Z,71.6
2022-12-14T18:17:59.007Z,76.9
2022-12-14T18:22:01.151Z,67.4
2022-12-14T18:24:02.215Z,56.7
2022-12-14T18:26:03.252Z,76.2
2022-12-14T18:28:04.338Z,69.7
2022-12-14T18:30:08.763Z,57.2
2022-12-14T18:32:09.827Z,66.2
2022-12-14T18:34:10.867Z,56.1
2022-12-14T18:40:41.707Z,73.7
2022-12-14T18:48:49.290Z,75.6
2022-12-14T18:50:50.357Z,90.6
2022-12-14T18:52:51.366Z,74.3
2022-12-14T18:54:52.433Z,117.8
2022-12-14T19:00:58.958Z,158.3
2022-12-14T19:03:00.104Z,89.4
2022-12-14T19:09:03.103Z,70.2
2022-12-14T19:11:07.507Z,59.1
2022-12-14T19:13:08.553Z,62.5
2022-12-14T19:15:09.596Z,61.8
2022-12-14T19:21:12.740Z,62.1
2022-12-14T19:23:13.777Z,63
2022-12-14T19:27:35.726Z,68.5
2022-12-14T19:29:20.313Z,71.6
2022-12-14T19:32:23.540Z,59.3
2022-12-14T19:34:24.591Z,62
2022-12-14T19:36:25.643Z,49.2
2022-12-14T19:38:30.119Z,49.6
2022-12-14T19:40:31.031Z,48.9
2022-12-14T19:42:32.076Z,68.5
2022-12-14T19:44:33.125Z,59.5
2022-12-14T19:48:35.232Z,53.2
2022-12-14T19:50:36.292Z,79.5
2022-12-14T19:52:40.680Z,76
2022-12-14T19:54:41.646Z,179.1
2022-12-14T19:56:42.712Z,102.4
2022-12-14T19:58:43.679Z,74.2
2022-12-14T20:00:44.699Z,54.2
2022-12-14T20:02:45.955Z,48
2022-12-14T20:04:46.874Z,50.7
2022-12-14T20:06:51.300Z,60
2022-12-14T20:08:52.361Z,46.3
2022-12-14T20:10:53.422Z,51.6
2022-12-14T20:14:55.546Z,61
2022-12-14T20:16:56.614Z,59.6
2022-12-14T20:21:02.119Z,64.9
2022-12-14T20:23:03.170Z,50.3
2022-12-14T20:26:06.456Z,56.7
2022-12-14T20:28:07.540Z,45.3
2022-12-14T20:30:08.602Z,39.3
2022-12-14T20:32:09.667Z,37.9
2022-12-14T20:34:14.151Z,46.8
2022-12-14T20:36:15.106Z,41.3
2022-12-14T20:38:16.159Z,39
2022-12-14T20:40:17.115Z,38.6
2022-12-14T20:42:18.135Z,41.6
2022-12-14T20:48:24.330Z,36.3
2022-12-14T21:06:36.997Z,41.9
2022-12-14T21:08:38.081Z,40.5
2022-12-14T21:10:39.199Z,30.2
2022-12-14T21:12:40.273Z,38
2022-12-14T21:14:41.351Z,35.8
2022-12-14T21:16:45.935Z,42.5
2022-12-14T21:18:46.825Z,32.4
2022-12-14T21:21:53.517Z,36.5
2022-12-14T21:25:52.017Z,36.9
2022-12-14T21:27:53.000Z,35.2
2022-12-14T21:29:57.373Z,46.2
2022-12-14T21:33:59.349Z,34.6
2022-12-14T21:38:01.531Z,42.5
2022-12-14T21:40:02.551Z,37
2022-12-14T21:42:03.627Z,42.6
2022-12-14T21:46:08.897Z,35.1
2022-12-14T21:50:10.849Z,39.4
2022-12-14T21:52:11.851Z,29.3
2022-12-14T21:54:12.950Z,40.3
2022-12-14T21:56:13.985Z,33.7
2022-12-14T21:58:18.339Z,28.4
2022-12-14T22:00:19.431Z,35.8
2022-12-14T22:02:20.701Z,35
2022-12-14T22:04:21.608Z,32.7
2022-12-14T22:08:23.670Z,32.2
2022-12-14T22:10:25.257Z,29.1
2022-12-14T22:14:29.918Z,26.9
2022-12-14T22:23:01.371Z,35.1
2022-12-14T22:25:05.678Z,30.7
2022-12-14T22:27:06.667Z,50.5
2022-12-14T22:29:07.642Z,44.7
2022-12-14T22:31:08.644Z,51.4
2022-12-14T22:33:09.650Z,36.3
2022-12-14T22:35:10.646Z,29.8
2022-12-14T22:37:11.623Z,33.4
2022-12-14T22:39:15.915Z,35.9
2022-12-14T22:41:16.924Z,36.5
2022-12-14T22:43:19.924Z,33.8
2022-12-14T22:45:18.914Z,43.9
2022-12-14T22:47:20.006Z,45.3
2022-12-14T22:49:21.017Z,41.3
2022-12-14T22:51:22.005Z,46.1
2022-12-14T22:53:26.256Z,44
2022-12-14T22:55:27.261Z,34.2
2022-12-14T22:57:28.267Z,39.3
2022-12-14T22:59:29.225Z,35.2
2022-12-14T23:03:31.734Z,33.6
2022-12-14T23:05:32.205Z,45.5
2022-12-14T23:07:36.471Z,41.6
2022-12-14T23:09:37.480Z,45
2022-12-14T23:11:38.488Z,38.2
2022-12-14T23:12:40.603Z,38.9
2022-12-14T23:14:41.580Z,39.9
2022-12-14T23:16:42.630Z,36.6
2022-12-14T23:18:43.578Z,34.3
2022-12-14T23:20:47.833Z,34.7
2022-12-14T23:22:49.589Z,36.6
2022-12-14T23:24:49.813Z,38.8
2022-12-14T23:26:50.904Z,27.4
2022-12-14T23:30:54.570Z,38.1
2022-12-14T23:32:57.151Z,28.6
2022-12-14T23:35:01.450Z,29.3
2022-12-14T23:37:02.549Z,37
2022-12-14T23:39:03.541Z,33.1
2022-12-14T23:41:04.551Z,38
2022-12-14T23:43:05.529Z,55.8
2022-12-14T23:45:06.497Z,31.8
2022-12-14T23:47:07.594Z,51.8
2022-12-14T23:49:15.614Z,34.1
2022-12-14T23:51:12.942Z,35.1
2022-12-14T23:53:13.981Z,28.1
2022-12-14T23:55:14.933Z,56.1
2022-12-14T23:57:16.007Z,43.2
2022-12-14T23:59:20.028Z,29.9
